Time;durP1;ratioP1;P1;durP2;ratioP2;P2;SDS_P1;SDS_P2;PMS_P1;PMS_P2;Temp;Humidity;BMP_temperature;BMP_pressure;BME280_temperature;BME280_humidity;BME280_pressure;Samples;Min_cycle;Max_cycle;Signal;HPM_P1;HPM_P2
2021/06/30 05:10:24;;;;;;;10.08;3.87;;;;;;;35.86;34.26;100509.39;1719429;82;21207;-71
2021/06/30 05:12:57;;;;;;;4.33;3.20;;;;;;;36.33;33.25;100505.60;1735910;82;21300;-71
2021/06/30 05:19:39;;;;;;;3.50;3.20;;;;;;;37.27;31.19;100495.04;1747353;80;21184;-69
2021/06/30 05:22:13;;;;;;;6.80;3.60;;;;;;;38.12;29.62;100491.66;1747181;82;21569;-70
2021/06/30 05:24:46;;;;;;;4.30;3.33;;;;;;;38.60;29.00;100488.24;1746953;82;21312;-70
2021/06/30 05:27:19;;;;;;;7.22;3.33;;;;;;;38.98;28.12;100487.40;1747139;82;21307;-72
2021/06/30 05:29:52;;;;;;;4.95;2.55;;;;;;;39.30;27.55;100488.94;1746954;82;21244;-70
2021/06/30 05:32:25;;;;;;;2.87;2.60;;;;;;;39.63;26.99;100491.47;1747159;82;21315;-73
2021/06/30 05:34:59;;;;;;;4.00;2.37;;;;;;;40.04;26.29;100488.21;1746885;82;21335;-71
2021/06/30 05:37:32;;;;;;;2.65;2.30;;;;;;;40.43;25.53;100493.98;1747213;82;21556;-72
2021/06/30 05:40:07;;;;;;;5.97;2.37;;;;;;;40.81;25.26;100494.80;1747777;82;21838;-67
2021/06/30 05:42:42;;;;;;;3.50;2.20;;;;;;;41.15;24.25;100493.82;1747195;82;21338;-70
2021/06/30 05:45:19;;;;;;;4.80;2.52;;;;;;;41.46;23.75;100496.98;1746940;82;21188;-69
2021/06/30 05:47:53;;;;;;;5.05;1.90;;;;;;;41.68;23.78;100493.07;1747167;82;21355;-71
2021/06/30 05:50:26;;;;;;;2.95;1.87;;;;;;;41.93;22.43;100496.75;1746973;82;22145;-72
2021/06/30 05:52:59;;;;;;;2.30;1.98;;;;;;;42.07;22.34;100494.49;1747173;82;21350;-72
2021/06/30 05:55:32;;;;;;;4.50;2.02;;;;;;;42.31;22.22;100497.89;1747054;82;21208;-70
2021/06/30 05:58:05;;;;;;;2.90;2.00;;;;;;;42.57;21.67;100501.16;1747131;82;21291;-70
2021/06/30 06:04:47;;;;;;;4.58;1.92;;;;;;;43.08;21.04;100507.94;1747332;82;21177;-71
2021/06/30 06:07:20;;;;;;;3.30;1.90;;;;;;;43.45;20.28;100503.95;1738870;82;21351;-68
2021/06/30 06:09:53;;;;;;;2.02;1.70;;;;;;;43.66;19.67;100500.45;1736102;82;21339;-68
2021/06/30 06:12:28;;;;;;;2.47;1.72;;;;;;;43.93;19.15;100501.03;1736001;82;21331;-69
2021/06/30 06:19:10;;;;;;;4.22;2.77;;;;;;;44.31;19.01;100499.69;1736790;82;21141;-70
2021/06/30 06:21:43;;;;;;;2.20;1.90;;;;;;;43.87;19.37;100502.45;1723088;82;21568;-70
2021/06/30 06:24:16;;;;;;;1.92;1.65;;;;;;;43.80;19.21;100504.20;1705627;84;21553;-67
2021/06/30 06:26:51;;;;;;;2.40;1.70;;;;;;;43.72;19.07;100505.96;1702359;84;21882;-66
2021/06/30 06:29:26;;;;;;;4.92;1.67;;;;;;;43.80;19.06;100503.64;1728036;83;21246;-70
2021/06/30 06:32:00;;;;;;;2.30;1.55;;;;;;;43.99;18.73;100511.23;1713085;83;21304;-70
2021/06/30 06:34:33;;;;;;;2.27;1.87;;;;;;;43.97;19.05;100511.57;1703451;84;21287;-71
2021/06/30 06:37:09;;;;;;;2.98;2.08;;;;;;;44.12;18.98;100505.89;1704788;84;21244;-70
2021/06/30 06:39:40;;;;;;;29.25;3.67;;;;;;;44.40;19.07;100507.21;1701391;84;21299;-71
2021/06/30 06:42:13;;;;;;;3.17;1.70;;;;;;;44.76;18.50;100497.28;1704941;84;21504;-69
2021/06/30 06:44:46;;;;;;;2.58;1.80;;;;;;;45.04;18.09;100497.96;1703335;84;21323;-71
2021/06/30 06:47:19;;;;;;;4.58;1.90;;;;;;;45.26;18.03;100501.41;1704958;84;21338;-70
2021/06/30 06:49:52;;;;;;;3.25;2.00;;;;;;;45.48;17.52;100502.09;1703532;84;21189;-71
2021/06/30 06:52:25;;;;;;;3.55;1.82;;;;;;;45.58;16.92;100503.47;1678943;84;21839;-71
2021/06/30 06:55:00;;;;;;;2.25;1.90;;;;;;;45.69;17.18;100504.53;1703443;84;21327;-68
2021/06/30 06:57:33;;;;;;;2.27;1.70;;;;;;;45.85;17.01;100504.42;1704778;84;21228;-72
2021/06/30 07:00:08;;;;;;;3.10;1.90;;;;;;;45.90;16.75;100504.94;1705054;83;21288;-70
2021/06/30 07:02:41;;;;;;;2.12;1.60;;;;;;;46.00;17.10;100500.80;1730735;83;21495;-71
2021/06/30 07:05:14;;;;;;;1.98;1.70;;;;;;;46.16;16.78;100513.12;1713821;83;21295;-70
2021/06/30 07:07:48;;;;;;;1.60;1.50;;;;;;;46.18;16.15;100515.73;1700484;84;21479;-70
2021/06/30 07:10:20;;;;;;;1.60;1.50;;;;;;;46.22;16.42;100513.05;1765358;81;21283;-69
2021/06/30 07:12:54;;;;;;;2.75;1.70;;;;;;;46.26;16.46;100517.47;1764334;81;21242;-70
2021/06/30 07:15:26;;;;;;;3.52;1.87;;;;;;;46.19;16.81;100515.16;1765273;81;21261;-71
2021/06/30 07:18:01;;;;;;;1.90;1.45;;;;;;;46.11;16.55;100515.61;1764473;81;21327;-69
2021/06/30 07:20:34;;;;;;;1.67;1.57;;;;;;;46.14;16.54;100512.12;1763274;81;21570;-70
2021/06/30 07:23:07;;;;;;;2.65;1.60;;;;;;;46.07;16.38;100508.61;1764399;81;21239;-71
2021/06/30 07:25:41;;;;;;;2.72;1.70;;;;;;;46.03;16.51;100511.11;1757415;81;21185;-71
2021/06/30 07:28:14;;;;;;;2.25;1.40;;;;;;;46.17;16.47;100510.58;1738675;82;21375;-70
2021/06/30 07:30:47;;;;;;;3.92;1.70;;;;;;;46.18;16.21;100506.62;1739678;82;21299;-70
2021/06/30 07:33:20;;;;;;;2.25;1.50;;;;;;;46.11;16.79;100508.69;1738857;82;21558;-70
2021/06/30 07:35:53;;;;;;;2.70;1.50;;;;;;;46.12;16.21;100513.08;1739681;82;21836;-70
2021/06/30 07:38:26;;;;;;;5.22;1.90;;;;;;;46.07;16.18;100505.07;1738633;82;21756;-70
2021/06/30 07:40:59;;;;;;;3.17;1.92;;;;;;;46.00;15.81;100506.33;1739692;82;21229;-70
2021/06/30 07:43:33;;;;;;;4.12;2.00;;;;;;;45.86;16.28;100504.05;1738932;82;21240;-71
2021/06/30 07:46:07;;;;;;;2.98;1.87;;;;;;;45.83;16.87;100506.77;1739667;82;21542;-70
2021/06/30 07:48:41;;;;;;;7.10;2.10;;;;;;;45.88;16.67;100512.77;1738710;82;21890;-69
2021/06/30 07:51:14;;;;;;;3.62;2.12;;;;;;;45.90;16.88;100511.05;1739609;82;21181;-70
2021/06/30 07:53:47;;;;;;;5.83;2.02;;;;;;;45.87;16.18;100508.42;1738866;82;21518;-69
2021/06/30 07:56:33;;;;;;;5.75;1.95;;;;;;;45.78;16.28;100505.09;1739678;82;21815;-70
2021/06/30 07:58:55;;;;;;;4.10;1.50;;;;;;;45.79;16.40;100506.68;1737293;82;22161;-71
2021/06/30 08:01:28;;;;;;;2.45;1.80;;;;;;;45.73;16.50;100504.01;1739748;82;21295;-69
2021/06/30 08:04:05;;;;;;;3.75;1.90;;;;;;;45.65;16.43;100506.41;1738571;82;21463;-69
2021/06/30 08:06:37;;;;;;;2.35;1.65;;;;;;;45.43;16.16;100503.76;1737501;82;21237;-69
2021/06/30 08:09:11;;;;;;;2.22;1.65;;;;;;;45.23;16.57;100495.83;1736336;81;21261;-68
2021/06/30 08:11:46;;;;;;;2.22;1.70;;;;;;;45.14;16.79;100503.50;1736787;82;21431;-69
2021/06/30 08:14:19;;;;;;;2.92;1.42;;;;;;;45.10;16.61;100503.98;1736574;82;21324;-68
2021/06/30 08:16:53;;;;;;;3.10;1.80;;;;;;;44.96;16.70;100498.14;1736317;82;21966;-70
2021/06/30 08:19:27;;;;;;;3.95;2.35;;;;;;;44.75;16.86;100499.24;1736245;82;21298;-67
2021/06/30 08:22:00;;;;;;;2.60;1.75;;;;;;;44.55;17.27;100496.17;1737497;82;21299;-68
2021/06/30 08:24:33;;;;;;;7.42;2.10;;;;;;;44.48;17.35;100500.72;1736569;82;22135;-67
2021/06/30 08:27:08;;;;;;;3.25;1.80;;;;;;;44.27;17.46;100502.92;1737452;82;21323;-67
2021/06/30 08:29:43;;;;;;;5.00;2.00;;;;;;;44.15;17.77;100497.72;1736358;82;21363;-66
2021/06/30 08:32:24;;;;;;;3.30;1.75;;;;;;;43.75;17.31;100503.89;1737667;82;21288;-70
2021/06/30 08:34:57;;;;;;;2.33;1.55;;;;;;;43.25;18.24;100503.55;1736702;82;21990;-68
2021/06/30 08:37:38;;;;;;;2.08;1.62;;;;;;;43.23;18.34;100501.12;1737622;82;21315;-69
2021/06/30 08:40:10;;;;;;;5.35;1.82;;;;;;;43.25;18.33;100502.16;1736120;81;22085;-65
2021/06/30 08:46:57;;;;;;;2.08;1.60;;;;;;;43.01;18.02;100484.30;1737609;82;21121;-67
2021/06/30 08:49:31;;;;;;;2.20;1.60;;;;;;;42.50;18.95;100487.97;1736582;82;21252;-67
2021/06/30 08:52:05;;;;;;;2.25;1.50;;;;;;;42.40;18.82;100475.19;1727189;82;21295;-67
2021/06/30 08:54:44;;;;;;;2.58;1.27;;;;;;;42.42;19.11;100475.68;1736776;82;22104;-66
2021/06/30 08:57:18;;;;;;;3.40;1.55;;;;;;;42.30;18.43;100469.56;1737512;82;21197;-67
2021/06/30 08:59:51;;;;;;;3.77;1.72;;;;;;;41.96;18.79;100461.70;1736413;82;22150;-67
2021/06/30 09:02:25;;;;;;;3.45;2.02;;;;;;;41.62;18.88;100463.63;1737854;82;21999;-66
2021/06/30 09:07:53;;;;;;;6.40;1.65;;;;;;;40.98;19.54;100461.78;1737701;82;21347;-63
2021/06/30 09:10:40;;;;;;;2.55;1.70;;;;;;;40.64;19.83;100457.83;1736465;82;21583;-64
2021/06/30 09:13:26;;;;;;;3.12;1.60;;;;;;;40.47;20.15;100461.22;1737607;82;21300;-64
2021/06/30 09:20:10;;;;;;;3.92;1.72;;;;;;;39.79;21.07;100463.01;1736498;82;21185;-65
2021/06/30 09:22:55;;;;;;;4.78;1.65;;;;;;;39.23;21.32;100471.36;1737639;82;21304;-64
2021/06/30 09:25:35;;;;;;;2.33;1.75;;;;;;;38.98;21.81;100466.86;1736686;82;21225;-65
2021/06/30 09:32:18;;;;;;;10.82;2.62;;;;;;;38.29;22.32;100456.23;1737774;82;21120;-64
2021/06/30 09:34:51;;;;;;;9.08;2.58;;;;;;;38.05;22.54;100452.24;1737254;82;21327;-65
2021/06/30 09:37:30;;;;;;;13.38;2.15;;;;;;;37.79;24.09;100454.21;1737679;82;21283;-65
2021/06/30 09:40:04;;;;;;;3.40;1.57;;;;;;;37.71;24.37;100445.38;1736950;82;21307;-65
2021/06/30 09:42:37;;;;;;;3.67;1.70;;;;;;;37.39;23.93;100444.27;1737602;82;21205;-64
2021/06/30 09:45:20;;;;;;;2.92;2.10;;;;;;;37.01;24.12;100444.30;1737295;82;21591;-64
2021/06/30 09:47:57;;;;;;;7.28;2.00;;;;;;;36.60;24.92;100433.95;1737500;82;21363;-65
2021/06/30 09:50:39;;;;;;;1.67;1.50;;;;;;;36.27;25.30;100436.75;1736347;82;21197;-65
2021/06/30 09:53:13;;;;;;;6.85;1.90;;;;;;;36.08;26.21;100429.75;1737777;82;21311;-65
2021/06/30 09:55:48;;;;;;;3.37;2.00;;;;;;;35.98;26.71;100422.56;1689210;82;21193;-65
2021/06/30 10:02:40;;;;;;;3.17;1.60;;;;;;;35.62;26.88;100418.25;1737788;82;21168;-66
2021/06/30 10:05:13;;;;;;;5.25;1.90;;;;;;;35.55;26.30;100411.56;1737330;82;21240;-63
2021/06/30 10:15:52;;;;;;;5.53;1.92;;;;;;;34.78;26.90;100418.33;1734551;81;21404;-65
2021/06/30 10:18:25;;;;;;;7.83;2.40;;;;;;;34.73;27.42;100430.09;1736402;82;21581;-67
2021/06/30 10:20:57;;;;;;;;;;;;;;;34.81;27.45;100424.56;1728736;82;22031;-64
2021/06/30 10:27:40;;;;;;;4.58;2.10;;;;;;;34.94;27.68;100425.22;1736415;82;22004;-68
2021/06/30 10:30:13;;;;;;;;;;;;;;;34.88;27.79;100419.56;1740706;82;21993;-66
2021/06/30 10:33:00;;;;;;;4.37;2.20;;;;;;;34.99;27.72;100406.89;1751616;81;20210;-65
2021/06/30 10:35:46;;;;;;;5.95;2.12;;;;;;;35.00;27.14;100399.00;1737301;82;21209;-67
2021/06/30 10:38:19;;;;;;;3.98;2.22;;;;;;;34.85;26.81;100402.46;1736037;82;21174;-65
2021/06/30 10:40:54;;;;;;;3.67;2.20;;;;;;;34.68;27.35;100407.03;1734736;82;21327;-67
2021/06/30 10:43:27;;;;;;;2.02;1.67;;;;;;;34.60;27.29;100404.16;1735612;82;21161;-67
2021/06/30 10:46:25;;;;;;;3.55;1.72;;;;;;;34.62;27.84;100403.31;1736818;82;21216;-68
2021/06/30 10:49:18;;;;;;;3.77;2.00;;;;;;;34.69;27.31;100403.23;1736344;82;21176;-67
2021/06/30 10:51:54;;;;;;;7.85;2.02;;;;;;;34.72;27.15;100401.30;1735665;82;22318;-67
2021/06/30 10:54:44;;;;;;;2.52;1.87;;;;;;;34.52;28.08;100398.78;1736041;82;21299;-64
2021/06/30 10:57:22;;;;;;;2.42;1.90;;;;;;;34.35;28.26;100395.17;1735555;82;21205;-67
2021/06/30 11:00:06;;;;;;;7.83;2.00;;;;;;;34.26;27.85;100388.76;1735605;82;21312;-66
2021/06/30 11:02:39;;;;;;;5.22;2.00;;;;;;;34.26;27.64;100379.79;1735331;82;21579;-68
2021/06/30 11:05:21;;;;;;;2.65;1.72;;;;;;;34.23;28.39;100377.09;1735632;82;21185;-66
2021/06/30 11:07:55;;;;;;;2.47;1.82;;;;;;;34.20;28.68;100374.17;1734862;82;21590;-66
2021/06/30 11:10:36;;;;;;;5.12;1.90;;;;;;;34.11;27.72;100379.41;1737282;82;21193;-65
2021/06/30 11:13:10;;;;;;;1.90;1.80;;;;;;;34.00;27.61;100372.44;1733540;82;21213;-67
2021/06/30 11:15:44;;;;;;;;;;;;;;;33.87;27.51;100358.16;1738942;82;21224;-66
2021/06/30 11:18:28;;;;;;;4.22;2.05;;;;;;;33.78;27.86;100357.98;1737540;82;20202;-66
2021/06/30 11:21:03;;;;;;;4.90;2.62;;;;;;;33.65;28.57;100361.35;1737488;82;21186;-65
2021/06/30 11:23:40;;;;;;;9.70;2.50;;;;;;;33.45;29.72;100368.30;1736549;82;21369;-67
2021/06/30 11:26:38;;;;;;;6.97;2.33;;;;;;;33.13;34.05;100383.72;1735551;82;21272;-65
2021/06/30 11:29:35;;;;;;;4.85;2.27;;;;;;;32.67;36.33;100408.09;1732950;81;22151;-65
2021/06/30 11:32:08;;;;;;;6.40;2.60;;;;;;;32.05;38.27;100441.02;1726543;82;21239;-64
2021/06/30 12:02:59;;;;;;;9.75;1.52;;;;;;;23.11;58.16;100524.52;1857973;76;28440;-69
2021/06/30 12:05:35;;;;;;;2.58;1.50;;;;;;;22.91;58.48;100520.25;1838719;77;21185;-69
2021/06/30 12:08:09;;;;;;;4.10;1.50;;;;;;;22.79;58.13;100520.08;1836878;77;21172;-69
2021/06/30 12:10:44;;;;;;;1.85;1.32;;;;;;;22.75;59.91;100526.88;1818594;78;21200;-68
2021/06/30 12:13:17;;;;;;;5.97;1.50;;;;;;;22.74;60.18;100519.88;1818192;78;21594;-69
2021/06/30 12:15:51;;;;;;;2.98;1.57;;;;;;;22.79;60.34;100502.73;1806400;78;21179;-68
2021/06/30 12:18:24;;;;;;;5.15;1.55;;;;;;;22.92;61.28;100501.37;1803932;78;21189;-66
2021/06/30 12:20:57;;;;;;;3.87;1.60;;;;;;;23.10;60.99;100514.03;1802125;78;21862;-67
2021/06/30 12:23:31;;;;;;;4.37;1.60;;;;;;;23.26;61.01;100537.08;1785549;78;21310;-69
2021/06/30 12:26:17;;;;;;;2.55;1.80;;;;;;;23.49;60.22;100541.96;1802305;78;21325;-68
2021/06/30 12:28:52;;;;;;;1.85;1.47;;;;;;;23.81;60.62;100540.95;1812013;78;21743;-68
2021/06/30 12:31:25;;;;;;;3.80;1.52;;;;;;;24.19;60.55;100546.81;1798147;78;21207;-70
2021/06/30 12:33:59;;;;;;;5.20;1.50;;;;;;;24.52;59.26;100538.82;1814056;78;21964;-71
2021/06/30 12:36:32;;;;;;;3.27;1.40;;;;;;;24.76;57.60;100547.86;1819994;78;21310;-70
2021/06/30 12:39:21;;;;;;;;;;;;;;;24.94;58.00;100554.59;1804999;78;21297;-68
2021/06/30 12:41:58;;;;;;;2.40;1.60;;;;;;;24.99;55.82;100548.05;1785686;78;20325;-68
2021/06/30 12:44:33;;;;;;;2.98;1.42;;;;;;;25.20;55.96;100553.47;1807641;78;21195;-68
2021/06/30 12:47:11;;;;;;;10.35;1.90;;;;;;;25.20;55.96;100553.47;1796515;78;21244;-68
2021/06/30 12:50:04;;;;;;;5.33;1.92;;;;;;;25.25;55.94;100546.92;1793984;78;21189;-65
2021/06/30 12:52:38;;;;;;;3.15;1.70;;;;;;;25.38;55.83;100552.97;1808123;78;21310;-67
2021/06/30 12:55:13;;;;;;;4.17;1.52;;;;;;;25.55;54.67;100550.52;1805669;78;21281;-67
2021/06/30 12:58:04;;;;;;;5.62;1.67;;;;;;;25.67;53.98;100550.56;1815957;78;21557;-69
2021/06/30 13:00:37;;;;;;;2.02;1.70;;;;;;;25.68;53.80;100545.48;1800533;78;21299;-67
2021/06/30 13:03:19;;;;;;;3.15;2.20;;;;;;;25.34;54.30;100534.34;1816075;78;21235;-68
2021/06/30 13:05:53;;;;;;;2.45;1.82;;;;;;;25.34;54.30;100534.34;1812673;78;21208;-68
2021/06/30 13:08:42;;;;;;;1.82;1.65;;;;;;;25.26;54.72;100528.48;1799161;78;21353;-67
2021/06/30 13:11:21;;;;;;;2.22;1.57;;;;;;;25.24;54.40;100517.17;1808396;78;21229;-69
2021/06/30 13:14:15;;;;;;;1.70;1.60;;;;;;;25.21;55.23;100517.09;1790452;78;21173;-67
2021/06/30 13:16:58;;;;;;;2.58;1.60;;;;;;;25.17;54.81;100513.20;1807378;78;22130;-69
2021/06/30 13:19:48;;;;;;;2.67;1.70;;;;;;;25.10;54.19;100517.83;1809105;78;21287;-68
2021/06/30 13:22:30;;;;;;;3.30;1.50;;;;;;;24.99;55.11;100505.70;1814692;79;21345;-69
2021/06/30 13:25:17;;;;;;;4.83;2.00;;;;;;;24.93;54.95;100499.92;1799898;78;21738;-68
2021/06/30 13:36:13;;;;;;;4.12;2.00;;;;;;;24.82;55.91;100483.23;1815621;78;20321;-66
2021/06/30 13:38:53;;;;;;;;;;;;;;;24.85;55.77;100476.92;1803187;78;21207;-67
2021/06/30 13:41:21;;;;;;;3.87;1.80;;;;;;;24.85;54.30;100476.10;1816487;78;20259;-65
2021/06/30 13:43:55;;;;;;;;;;;;;;;24.79;53.67;100479.69;1786701;78;21210;-66
2021/06/30 13:46:28;;;;;;;6.78;2.10;;;;;;;24.74;54.02;100483.00;1808879;78;20821;-68
2021/06/30 13:49:01;;;;;;;;;;;;;;;24.68;54.13;100473.99;1795677;78;21317;-69
2021/06/30 13:51:35;;;;;;;1.90;1.70;;;;;;;24.67;54.03;100476.36;1802823;78;20208;-65
2021/06/30 13:54:08;;;;;;;7.08;2.55;;;;;;;24.64;54.44;100463.95;1813432;78;21962;-68
